Αναφορές Αεροδρομίων

 

KSJC - San Jose, California, USA
Distance from station: ΒΑ 14km
Ενημερώθηκε: 01/02/2023 12:53
Αίθριος
Αίθριος
 Ανεμος από ΝΑ
Ανεμος: ΝΑ 6 km/h
Θερμοκρασία: 3°C
Σημείο Δρόσου: -4°C
Υγρασία: 60%
Βαρόμετρο: 1022.4 hPa
Clouds: Αίθριος
Visibility: 16 km
2023/02/01 10:53 KSJC 011053Z AUTO 13003KT 10SM CLR 03/M04 A3019 RMK AO2 SLP221 T00331044
KNUQ - Moffett Nas/Mtn, California, USA
Distance from station: Β 14km
Ενημερώθηκε: 01/02/2023 13:15
Σχεδόν νεφελώδης
Σχεδόν νεφελώδης
 Ανεμος από ΝΝΑ
Ανεμος: ΝΝΑ 6 km/h
Θερμοκρασία: 3°C
Σημείο Δρόσου: -4°C
Υγρασία: 60%
Βαρόμετρο: 1022.4 hPa
Clouds: Σχεδόν νεφελώδης
Visibility: 16 km
Cloud details: Σχεδόν νεφελώδης 1250 m
2023/02/01 11:15 KNUQ 011115Z AUTO 15003KT 10SM BKN041 03/M04 A3019 RMK AO2
 
KPAO - Palo Alto, California, USA
Distance from station: ΒΒΔ 23km
Ενημερώθηκε: 01/02/2023 04:47
NOT Current
Αίθριος
Αίθριος
 Ανεμος από Δ
Ανεμος: Δ 9 km/h
Θερμοκρασία: 7°C
Wind Chill: 6°C
Σημείο Δρόσου: -2°C
Υγρασία: 53%
Βαρόμετρο: 1021.7 hPa
Clouds: Αίθριος
Visibility: 16 km
2023/02/01 02:47 KPAO 010247Z 28005KT 10SM SKC 07/M02 A3017
KRHV - San Jose/Reid, California, USA
Distance from station: ΑΒΑ 19km
Ενημερώθηκε: 01/02/2023 07:55
NOT Current
Αίθριος
Αίθριος
 Ανεμος από calm
Ανεμος: Απνοια
Θερμοκρασία: 6°C
Σημείο Δρόσου: -3°C
Υγρασία: 53%
Βαρόμετρο: 1022.7 hPa
Clouds: Αίθριος
Visibility: 16 km
2023/02/01 05:55 KRHV 010555Z 00000KT 10SM SKC 06/M03 A3020 RMK LAST
 
KOAK - Oakland, California, USA
Distance from station: ΒΒΔ 50km
Ενημερώθηκε: 01/02/2023 12:53
Μερικώς νεφελώδης
Μερικώς νεφελώδης
 Ανεμος από calm
Ανεμος: Απνοια
Θερμοκρασία: 3°C
Σημείο Δρόσου: -3°C
Υγρασία: 65%
Βαρόμετρο: 1022.7 hPa
Clouds: Μερικώς νεφελώδης
Visibility: 16 km
Cloud details: Few Clouds 5486 m
Μερικώς νεφελώδης 7620 m
2023/02/01 10:53 KOAK 011053Z 00000KT 10SM FEW180 SCT250 03/M03 A3020 RMK AO2 SLP224 T00281028
KSQL - San Carlos Airpo, California, USA
Distance from station: ΒΔ 34km
Ενημερώθηκε: 01/02/2023 13:15
Αίθριος
Αίθριος
 Ανεμος από calm
Ανεμος: Απνοια
Θερμοκρασία: 3°C
Σημείο Δρόσου: -2°C
Υγρασία: 70%
Βαρόμετρο: 1022.4 hPa
Clouds: Αίθριος
Visibility: 16 km
2023/02/01 11:15 KSQL 011115Z AUTO 00000KT 10SM CLR 03/M02 A3019 RMK AO2
 
KSFO - San Francisco, California, USA
Distance from station: ΒΔ 49km
Ενημερώθηκε: 01/02/2023 12:56
Αίθριος
Αίθριος
 Ανεμος από calm
Ανεμος: Απνοια
Θερμοκρασία: 6°C
Σημείο Δρόσου: -2°C
Υγρασία: 57%
Βαρόμετρο: 1022.4 hPa
Clouds: Αίθριος
Visibility: 16 km
2023/02/01 10:56 KSFO 011056Z 00000KT 10SM CLR 06/M02 A3019 RMK AO2 SLP221 T00561017
KE16 - San Martin, California, USA
Distance from station: ΑΝΑ 43km
Ενημερώθηκε: 01/02/2023 13:15
Αίθριος
Αίθριος
 Ανεμος από calm
Ανεμος: Απνοια
Θερμοκρασία: 0°C
Σημείο Δρόσου: -3°C
Υγρασία: 80%
Βαρόμετρο: 1023 hPa
Clouds: Αίθριος
Visibility: 16 km
2023/02/01 11:15 KE16 011115Z AUTO 00000KT 10SM CLR 00/M03 A3021 RMK AO2 PWINO PNO
 
KWVI - Watsonville, California, USA
Distance from station: ΝΝΑ 44km
Ενημερώθηκε: 01/02/2023 12:53
Αίθριος
Αίθριος
 Ανεμος από calm
Ανεμος: Απνοια
Θερμοκρασία: 0°C
Σημείο Δρόσου: -2°C
Υγρασία: 87%
Βαρόμετρο: 1022 hPa
Clouds: Αίθριος
Visibility: 16 km
2023/02/01 10:53 KWVI 011053Z AUTO 00000KT 10SM CLR 00/M02 A3018 RMK AO2 SLP222 T00001022
KHAF - Half Moon Bay, California, USA
Distance from station: ΔΒΔ 50km
Ενημερώθηκε: 01/02/2023 13:15
Σχεδόν νεφελώδης
Σχεδόν νεφελώδης
 Ανεμος από ΒΒΑ
Ανεμος: ΒΒΑ 7 km/h
Θερμοκρασία: 2°C
Wind Chill: 0°C
Σημείο Δρόσου: -4°C
Υγρασία: 65%
Βαρόμετρο: 1021.7 hPa
Clouds: Σχεδόν νεφελώδης
Visibility: 14 km
Cloud details: Few Clouds 91 m
Σχεδόν νεφελώδης 1250 m
2023/02/01 11:15 KHAF 011115Z AUTO 03004KT 9SM FEW003 BKN041 02/M04 A3017 RMK AO2
 
KHWD - Hayward, California, USA
Distance from station: Β 44km
Ενημερώθηκε: 01/02/2023 12:54
Αίθριος
Αίθριος
 Ανεμος από calm
Ανεμος: Απνοια
Θερμοκρασία: 4°C
Σημείο Δρόσου: -3°C
Υγρασία: 61%
Βαρόμετρο: 1022 hPa
Clouds: Αίθριος
Visibility: 16 km
2023/02/01 10:54 KHWD 011054Z AUTO 00000KT 10SM CLR 04/M03 A3018 RMK AO2 SLP231 T00391033
KLVK - Livermore, California, USA
Distance from station: ΒΒΑ 51km
Ενημερώθηκε: 01/02/2023 12:53
Αίθριος
Αίθριος
 Ανεμος από Α
Ανεμος: Α 6 km/h
Θερμοκρασία: 0°C
Σημείο Δρόσου: -4°C
Υγρασία: 75%
Βαρόμετρο: 1022.4 hPa
Clouds: Αίθριος
Visibility: 16 km
2023/02/01 10:53 KLVK 011053Z AUTO 10003KT 10SM CLR 00/M04 A3019 RMK AO2 SLP222 T00001039